sensor_id;sensor_type;location;lat;lon;timestamp;P1;durP1;ratioP1;P2;durP2;ratioP2
16963;SDS011;8598;50.508;10.436;2023-08-21T00:00:54;25.53;;;20.17;;
16963;SDS011;8598;50.508;10.436;2023-08-21T00:03:21;27.10;;;20.90;;
16963;SDS011;8598;50.508;10.436;2023-08-21T00:05:48;32.13;;;19.90;;
16963;SDS011;8598;50.508;10.436;2023-08-21T00:08:15;30.97;;;21.07;;
16963;SDS011;8598;50.508;10.436;2023-08-21T00:10:41;31.00;;;21.13;;
16963;SDS011;8598;50.508;10.436;2023-08-21T00:13:09;25.00;;;19.00;;
16963;SDS011;8598;50.508;10.436;2023-08-21T00:15:37;23.57;;;16.53;;
16963;SDS011;8598;50.508;10.436;2023-08-21T00:18:04;22.00;;;17.03;;
16963;SDS011;8598;50.508;10.436;2023-08-21T00:20:30;24.47;;;15.53;;
16963;SDS011;8598;50.508;10.436;2023-08-21T00:22:57;20.87;;;15.37;;
16963;SDS011;8598;50.508;10.436;2023-08-21T00:25:24;19.43;;;15.33;;
16963;SDS011;8598;50.508;10.436;2023-08-21T00:27:51;25.10;;;16.60;;
16963;SDS011;8598;50.508;10.436;2023-08-21T00:30:19;21.97;;;18.33;;
16963;SDS011;8598;50.508;10.436;2023-08-21T00:32:46;24.90;;;17.70;;
16963;SDS011;8598;50.508;10.436;2023-08-21T00:35:12;28.20;;;19.43;;
16963;SDS011;8598;50.508;10.436;2023-08-21T00:37:39;25.43;;;18.93;;
16963;SDS011;8598;50.508;10.436;2023-08-21T00:40:07;25.93;;;18.83;;
16963;SDS011;8598;50.508;10.436;2023-08-21T00:42:34;23.90;;;19.37;;
16963;SDS011;8598;50.508;10.436;2023-08-21T00:45:01;29.47;;;21.03;;
16963;SDS011;8598;50.508;10.436;2023-08-21T00:47:29;28.47;;;19.17;;
16963;SDS011;8598;50.508;10.436;2023-08-21T00:49:56;30.73;;;23.13;;
16963;SDS011;8598;50.508;10.436;2023-08-21T00:52:23;28.97;;;20.97;;
16963;SDS011;8598;50.508;10.436;2023-08-21T00:54:50;32.30;;;22.33;;
16963;SDS011;8598;50.508;10.436;2023-08-21T00:57:17;27.87;;;21.77;;
16963;SDS011;8598;50.508;10.436;2023-08-21T00:59:44;30.80;;;21.03;;
16963;SDS011;8598;50.508;10.436;2023-08-21T01:02:12;27.97;;;20.37;;
16963;SDS011;8598;50.508;10.436;2023-08-21T01:04:41;29.80;;;21.77;;
16963;SDS011;8598;50.508;10.436;2023-08-21T01:07:08;33.03;;;24.27;;
16963;SDS011;8598;50.508;10.436;2023-08-21T01:09:36;32.07;;;21.50;;
16963;SDS011;8598;50.508;10.436;2023-08-21T01:12:11;31.17;;;20.43;;
16963;SDS011;8598;50.508;10.436;2023-08-21T01:14:45;34.43;;;21.47;;
16963;SDS011;8598;50.508;10.436;2023-08-21T01:17:17;30.20;;;21.40;;
16963;SDS011;8598;50.508;10.436;2023-08-21T01:19:48;32.00;;;20.90;;
16963;SDS011;8598;50.508;10.436;2023-08-21T01:22:16;36.90;;;21.83;;
16963;SDS011;8598;50.508;10.436;2023-08-21T01:24:44;31.97;;;21.90;;
16963;SDS011;8598;50.508;10.436;2023-08-21T01:27:10;29.53;;;20.37;;
16963;SDS011;8598;50.508;10.436;2023-08-21T01:29:39;27.17;;;21.07;;
16963;SDS011;8598;50.508;10.436;2023-08-21T01:32:06;31.70;;;22.13;;
16963;SDS011;8598;50.508;10.436;2023-08-21T01:34:38;27.30;;;20.67;;
16963;SDS011;8598;50.508;10.436;2023-08-21T01:37:06;30.07;;;20.83;;
16963;SDS011;8598;50.508;10.436;2023-08-21T01:39:34;28.03;;;20.30;;
16963;SDS011;8598;50.508;10.436;2023-08-21T01:42:02;27.13;;;19.73;;
16963;SDS011;8598;50.508;10.436;2023-08-21T01:44:29;27.03;;;19.83;;
16963;SDS011;8598;50.508;10.436;2023-08-21T01:46:56;31.93;;;20.90;;
16963;SDS011;8598;50.508;10.436;2023-08-21T01:49:22;24.90;;;18.37;;
16963;SDS011;8598;50.508;10.436;2023-08-21T01:51:49;35.43;;;20.67;;
16963;SDS011;8598;50.508;10.436;2023-08-21T01:54:16;29.13;;;20.00;;
16963;SDS011;8598;50.508;10.436;2023-08-21T01:56:42;33.53;;;21.13;;
16963;SDS011;8598;50.508;10.436;2023-08-21T01:59:10;32.77;;;21.17;;
16963;SDS011;8598;50.508;10.436;2023-08-21T02:01:37;30.20;;;21.00;;
16963;SDS011;8598;50.508;10.436;2023-08-21T02:04:04;32.37;;;22.00;;
16963;SDS011;8598;50.508;10.436;2023-08-21T02:06:30;32.17;;;21.67;;
16963;SDS011;8598;50.508;10.436;2023-08-21T02:08:57;26.70;;;20.07;;
16963;SDS011;8598;50.508;10.436;2023-08-21T02:11:24;26.33;;;19.07;;
16963;SDS011;8598;50.508;10.436;2023-08-21T02:13:50;33.13;;;21.70;;
16963;SDS011;8598;50.508;10.436;2023-08-21T02:16:18;30.73;;;21.77;;
16963;SDS011;8598;50.508;10.436;2023-08-21T02:18:46;29.20;;;20.43;;
16963;SDS011;8598;50.508;10.436;2023-08-21T02:21:13;28.27;;;20.20;;
16963;SDS011;8598;50.508;10.436;2023-08-21T02:23:40;31.60;;;21.17;;
16963;SDS011;8598;50.508;10.436;2023-08-21T02:26:06;29.73;;;21.17;;
16963;SDS011;8598;50.508;10.436;2023-08-21T02:28:33;26.53;;;20.27;;
16963;SDS011;8598;50.508;10.436;2023-08-21T02:31:00;33.27;;;21.33;;
16963;SDS011;8598;50.508;10.436;2023-08-21T02:33:28;33.27;;;20.97;;
16963;SDS011;8598;50.508;10.436;2023-08-21T02:35:54;46.53;;;23.53;;
16963;SDS011;8598;50.508;10.436;2023-08-21T02:38:21;34.50;;;21.03;;
16963;SDS011;8598;50.508;10.436;2023-08-21T02:40:48;37.77;;;20.50;;
16963;SDS011;8598;50.508;10.436;2023-08-21T02:43:15;31.70;;;20.87;;
16963;SDS011;8598;50.508;10.436;2023-08-21T02:45:42;76.10;;;21.97;;
16963;SDS011;8598;50.508;10.436;2023-08-21T02:48:08;61.03;;;22.47;;
16963;SDS011;8598;50.508;10.436;2023-08-21T02:50:36;121.13;;;23.77;;
16963;SDS011;8598;50.508;10.436;2023-08-21T02:53:03;62.73;;;22.10;;
16963;SDS011;8598;50.508;10.436;2023-08-21T02:55:30;118.53;;;25.73;;
16963;SDS011;8598;50.508;10.436;2023-08-21T02:57:57;91.37;;;26.30;;
16963;SDS011;8598;50.508;10.436;2023-08-21T03:00:24;40.43;;;22.37;;
16963;SDS011;8598;50.508;10.436;2023-08-21T03:02:50;78.63;;;22.67;;
16963;SDS011;8598;50.508;10.436;2023-08-21T03:05:17;63.17;;;24.47;;
16963;SDS011;8598;50.508;10.436;2023-08-21T03:07:46;74.87;;;24.73;;
16963;SDS011;8598;50.508;10.436;2023-08-21T03:10:13;68.83;;;24.10;;
16963;SDS011;8598;50.508;10.436;2023-08-21T03:12:39;69.90;;;21.83;;
16963;SDS011;8598;50.508;10.436;2023-08-21T03:15:06;67.10;;;22.20;;
16963;SDS011;8598;50.508;10.436;2023-08-21T03:17:33;124.27;;;25.23;;
16963;SDS011;8598;50.508;10.436;2023-08-21T03:20:00;76.40;;;22.27;;
16963;SDS011;8598;50.508;10.436;2023-08-21T03:22:29;64.57;;;23.80;;
16963;SDS011;8598;50.508;10.436;2023-08-21T03:24:58;35.57;;;22.00;;
16963;SDS011;8598;50.508;10.436;2023-08-21T03:27:24;46.57;;;22.87;;
16963;SDS011;8598;50.508;10.436;2023-08-21T03:29:51;52.03;;;22.10;;
16963;SDS011;8598;50.508;10.436;2023-08-21T03:32:18;30.40;;;19.20;;
16963;SDS011;8598;50.508;10.436;2023-08-21T03:34:45;35.00;;;20.97;;
16963;SDS011;8598;50.508;10.436;2023-08-21T03:37:11;31.87;;;19.80;;
16963;SDS011;8598;50.508;10.436;2023-08-21T03:39:38;36.57;;;20.87;;
16963;SDS011;8598;50.508;10.436;2023-08-21T03:42:06;30.73;;;18.93;;
16963;SDS011;8598;50.508;10.436;2023-08-21T03:44:33;34.07;;;19.60;;
16963;SDS011;8598;50.508;10.436;2023-08-21T03:46:59;41.97;;;19.37;;
16963;SDS011;8598;50.508;10.436;2023-08-21T03:49:26;53.77;;;21.77;;
16963;SDS011;8598;50.508;10.436;2023-08-21T03:51:53;56.70;;;20.87;;
16963;SDS011;8598;50.508;10.436;2023-08-21T03:54:19;51.83;;;21.03;;
16963;SDS011;8598;50.508;10.436;2023-08-21T03:56:46;52.57;;;20.73;;
16963;SDS011;8598;50.508;10.436;2023-08-21T03:59:14;30.50;;;20.30;;
16963;SDS011;8598;50.508;10.436;2023-08-21T04:01:41;33.87;;;19.37;;
16963;SDS011;8598;50.508;10.436;2023-08-21T04:04:07;32.73;;;19.77;;
16963;SDS011;8598;50.508;10.436;2023-08-21T04:06:34;33.40;;;20.00;;
16963;SDS011;8598;50.508;10.436;2023-08-21T04:09:01;29.23;;;19.57;;
16963;SDS011;8598;50.508;10.436;2023-08-21T04:11:30;39.03;;;17.77;;
16963;SDS011;8598;50.508;10.436;2023-08-21T04:13:57;32.00;;;18.47;;
16963;SDS011;8598;50.508;10.436;2023-08-21T04:16:26;26.77;;;18.70;;
16963;SDS011;8598;50.508;10.436;2023-08-21T04:18:53;30.77;;;18.33;;
16963;SDS011;8598;50.508;10.436;2023-08-21T04:21:20;28.37;;;17.30;;
16963;SDS011;8598;50.508;10.436;2023-08-21T04:23:46;29.80;;;17.90;;
16963;SDS011;8598;50.508;10.436;2023-08-21T04:26:13;25.93;;;17.10;;
16963;SDS011;8598;50.508;10.436;2023-08-21T04:28:40;24.47;;;16.77;;
16963;SDS011;8598;50.508;10.436;2023-08-21T04:31:07;27.50;;;17.20;;
16963;SDS011;8598;50.508;10.436;2023-08-21T04:33:35;24.20;;;17.07;;
16963;SDS011;8598;50.508;10.436;2023-08-21T04:36:02;22.83;;;16.40;;
16963;SDS011;8598;50.508;10.436;2023-08-21T04:38:29;26.87;;;16.00;;
16963;SDS011;8598;50.508;10.436;2023-08-21T04:40:55;22.07;;;15.80;;
16963;SDS011;8598;50.508;10.436;2023-08-21T04:43:22;24.83;;;16.17;;
16963;SDS011;8598;50.508;10.436;2023-08-21T04:45:49;26.37;;;16.40;;
16963;SDS011;8598;50.508;10.436;2023-08-21T04:48:17;24.37;;;16.90;;
16963;SDS011;8598;50.508;10.436;2023-08-21T04:50:46;26.83;;;17.83;;
16963;SDS011;8598;50.508;10.436;2023-08-21T04:53:13;25.70;;;17.27;;
16963;SDS011;8598;50.508;10.436;2023-08-21T04:55:40;25.40;;;16.50;;
16963;SDS011;8598;50.508;10.436;2023-08-21T04:58:07;23.43;;;16.13;;
16963;SDS011;8598;50.508;10.436;2023-08-21T05:00:34;23.77;;;15.23;;
16963;SDS011;8598;50.508;10.436;2023-08-21T05:03:01;24.77;;;17.73;;
16963;SDS011;8598;50.508;10.436;2023-08-21T05:05:28;26.63;;;16.50;;
16963;SDS011;8598;50.508;10.436;2023-08-21T05:07:56;24.63;;;15.70;;
16963;SDS011;8598;50.508;10.436;2023-08-21T05:10:22;40.93;;;18.13;;
16963;SDS011;8598;50.508;10.436;2023-08-21T05:12:49;43.93;;;20.60;;
16963;SDS011;8598;50.508;10.436;2023-08-21T05:15:16;44.27;;;19.77;;
16963;SDS011;8598;50.508;10.436;2023-08-21T05:17:43;38.63;;;18.33;;
16963;SDS011;8598;50.508;10.436;2023-08-21T05:20:10;36.57;;;18.60;;
16963;SDS011;8598;50.508;10.436;2023-08-21T05:22:39;48.37;;;20.90;;
16963;SDS011;8598;50.508;10.436;2023-08-21T05:25:08;46.00;;;18.70;;
16963;SDS011;8598;50.508;10.436;2023-08-21T05:27:36;52.10;;;18.90;;
16963;SDS011;8598;50.508;10.436;2023-08-21T05:30:03;47.73;;;18.73;;
16963;SDS011;8598;50.508;10.436;2023-08-21T05:32:30;50.60;;;18.10;;
16963;SDS011;8598;50.508;10.436;2023-08-21T05:34:57;72.60;;;18.87;;
16963;SDS011;8598;50.508;10.436;2023-08-21T05:37:23;69.93;;;17.90;;
16963;SDS011;8598;50.508;10.436;2023-08-21T05:39:51;38.83;;;17.33;;
16963;SDS011;8598;50.508;10.436;2023-08-21T05:42:20;103.27;;;20.03;;
16963;SDS011;8598;50.508;10.436;2023-08-21T05:44:46;37.00;;;18.47;;
16963;SDS011;8598;50.508;10.436;2023-08-21T05:47:13;40.57;;;18.10;;
16963;SDS011;8598;50.508;10.436;2023-08-21T05:49:40;79.53;;;17.87;;
16963;SDS011;8598;50.508;10.436;2023-08-21T05:52:08;24.73;;;16.57;;
16963;SDS011;8598;50.508;10.436;2023-08-21T05:54:35;38.17;;;18.63;;
16963;SDS011;8598;50.508;10.436;2023-08-21T05:57:02;23.90;;;16.90;;
16963;SDS011;8598;50.508;10.436;2023-08-21T05:59:31;28.00;;;14.83;;
16963;SDS011;8598;50.508;10.436;2023-08-21T06:01:58;26.13;;;15.47;;
16963;SDS011;8598;50.508;10.436;2023-08-21T06:04:25;20.00;;;13.87;;
16963;SDS011;8598;50.508;10.436;2023-08-21T06:06:52;24.03;;;15.60;;
16963;SDS011;8598;50.508;10.436;2023-08-21T06:09:19;19.53;;;14.10;;
16963;SDS011;8598;50.508;10.436;2023-08-21T06:11:46;24.43;;;13.63;;
16963;SDS011;8598;50.508;10.436;2023-08-21T06:14:13;16.43;;;11.63;;
16963;SDS011;8598;50.508;10.436;2023-08-21T06:16:41;19.97;;;12.80;;
16963;SDS011;8598;50.508;10.436;2023-08-21T06:19:08;15.47;;;11.90;;
16963;SDS011;8598;50.508;10.436;2023-08-21T06:21:35;14.90;;;11.50;;
16963;SDS011;8598;50.508;10.436;2023-08-21T06:24:02;13.10;;;10.83;;
16963;SDS011;8598;50.508;10.436;2023-08-21T06:26:29;16.70;;;11.10;;
16963;SDS011;8598;50.508;10.436;2023-08-21T06:28:56;14.07;;;10.17;;
16963;SDS011;8598;50.508;10.436;2023-08-21T06:31:23;12.80;;;10.07;;
16963;SDS011;8598;50.508;10.436;2023-08-21T06:33:51;16.00;;;10.60;;
16963;SDS011;8598;50.508;10.436;2023-08-21T06:36:17;13.30;;;10.07;;
16963;SDS011;8598;50.508;10.436;2023-08-21T06:38:44;10.93;;;9.10;;
16963;SDS011;8598;50.508;10.436;2023-08-21T06:41:11;10.43;;;9.17;;
16963;SDS011;8598;50.508;10.436;2023-08-21T06:43:37;9.93;;;8.57;;
16963;SDS011;8598;50.508;10.436;2023-08-21T06:46:04;9.73;;;8.07;;
16963;SDS011;8598;50.508;10.436;2023-08-21T06:48:31;9.40;;;7.83;;
16963;SDS011;8598;50.508;10.436;2023-08-21T06:50:59;10.30;;;8.47;;
16963;SDS011;8598;50.508;10.436;2023-08-21T06:53:27;9.63;;;7.90;;
16963;SDS011;8598;50.508;10.436;2023-08-21T06:55:54;11.27;;;7.53;;
16963;SDS011;8598;50.508;10.436;2023-08-21T06:58:20;7.78;;;6.85;;
16963;SDS011;8598;50.508;10.436;2023-08-21T07:00:47;12.25;;;7.20;;
16963;SDS011;8598;50.508;10.436;2023-08-21T07:03:14;10.73;;;6.95;;
16963;SDS011;8598;50.508;10.436;2023-08-21T07:05:41;7.90;;;7.10;;
16963;SDS011;8598;50.508;10.436;2023-08-21T07:08:13;8.50;;;7.50;;
16963;SDS011;8598;50.508;10.436;2023-08-21T07:10:40;9.60;;;6.90;;
16963;SDS011;8598;50.508;10.436;2023-08-21T07:13:06;7.60;;;6.80;;
16963;SDS011;8598;50.508;10.436;2023-08-21T07:15:33;9.13;;;7.20;;
16963;SDS011;8598;50.508;10.436;2023-08-21T07:18:00;8.70;;;6.67;;
16963;SDS011;8598;50.508;10.436;2023-08-21T07:20:27;9.30;;;7.50;;
16963;SDS011;8598;50.508;10.436;2023-08-21T07:22:54;10.10;;;7.30;;
16963;SDS011;8598;50.508;10.436;2023-08-21T07:25:22;10.60;;;7.13;;
16963;SDS011;8598;50.508;10.436;2023-08-21T07:27:49;9.50;;;7.70;;
16963;SDS011;8598;50.508;10.436;2023-08-21T07:30:18;10.53;;;7.53;;
16963;SDS011;8598;50.508;10.436;2023-08-21T07:32:45;12.00;;;7.53;;
16963;SDS011;8598;50.508;10.436;2023-08-21T07:35:12;9.10;;;6.77;;
16963;SDS011;8598;50.508;10.436;2023-08-21T07:37:38;9.90;;;7.40;;
16963;SDS011;8598;50.508;10.436;2023-08-21T07:40:06;9.53;;;6.70;;
16963;SDS011;8598;50.508;10.436;2023-08-21T07:42:35;10.37;;;7.90;;
16963;SDS011;8598;50.508;10.436;2023-08-21T07:45:02;7.27;;;6.53;;
16963;SDS011;8598;50.508;10.436;2023-08-21T07:47:29;9.93;;;8.23;;
16963;SDS011;8598;50.508;10.436;2023-08-21T07:49:56;11.20;;;7.43;;
16963;SDS011;8598;50.508;10.436;2023-08-21T07:52:23;10.67;;;7.40;;
16963;SDS011;8598;50.508;10.436;2023-08-21T07:54:50;10.67;;;8.03;;
16963;SDS011;8598;50.508;10.436;2023-08-21T07:57:17;8.93;;;7.70;;
16963;SDS011;8598;50.508;10.436;2023-08-21T07:59:45;9.40;;;7.60;;
16963;SDS011;8598;50.508;10.436;2023-08-21T08:02:12;9.37;;;7.73;;
16963;SDS011;8598;50.508;10.436;2023-08-21T08:04:39;15.77;;;7.57;;
16963;SDS011;8598;50.508;10.436;2023-08-21T08:07:08;9.43;;;7.38;;
16963;SDS011;8598;50.508;10.436;2023-08-21T08:09:34;9.07;;;7.93;;
16963;SDS011;8598;50.508;10.436;2023-08-21T08:12:01;9.47;;;8.37;;
16963;SDS011;8598;50.508;10.436;2023-08-21T08:14:28;9.70;;;7.57;;
16963;SDS011;8598;50.508;10.436;2023-08-21T08:16:56;9.63;;;7.80;;
16963;SDS011;8598;50.508;10.436;2023-08-21T08:19:23;8.77;;;7.53;;
16963;SDS011;8598;50.508;10.436;2023-08-21T08:21:50;9.60;;;7.83;;
16963;SDS011;8598;50.508;10.436;2023-08-21T08:24:16;16.43;;;7.90;;
16963;SDS011;8598;50.508;10.436;2023-08-21T08:26:43;11.30;;;7.83;;
16963;SDS011;8598;50.508;10.436;2023-08-21T08:29:11;11.60;;;8.20;;
16963;SDS011;8598;50.508;10.436;2023-08-21T08:31:37;12.97;;;8.30;;
16963;SDS011;8598;50.508;10.436;2023-08-21T08:34:06;10.87;;;7.90;;
16963;SDS011;8598;50.508;10.436;2023-08-21T08:36:32;8.60;;;7.00;;
16963;SDS011;8598;50.508;10.436;2023-08-21T08:38:59;14.97;;;7.87;;
16963;SDS011;8598;50.508;10.436;2023-08-21T08:41:40;10.17;;;8.27;;
16963;SDS011;8598;50.508;10.436;2023-08-21T08:44:14;10.40;;;8.20;;
16963;SDS011;8598;50.508;10.436;2023-08-21T08:46:42;10.37;;;7.77;;
16963;SDS011;8598;50.508;10.436;2023-08-21T08:49:11;7.70;;;6.90;;
16963;SDS011;8598;50.508;10.436;2023-08-21T08:51:38;9.07;;;7.77;;
16963;SDS011;8598;50.508;10.436;2023-08-21T08:54:07;10.80;;;6.80;;
16963;SDS011;8598;50.508;10.436;2023-08-21T08:56:35;7.13;;;6.37;;
16963;SDS011;8598;50.508;10.436;2023-08-21T08:59:01;8.53;;;6.50;;
16963;SDS011;8598;50.508;10.436;2023-08-21T09:01:29;10.33;;;6.20;;
16963;SDS011;8598;50.508;10.436;2023-08-21T09:03:55;8.47;;;6.97;;
16963;SDS011;8598;50.508;10.436;2023-08-21T09:06:23;11.03;;;7.00;;
16963;SDS011;8598;50.508;10.436;2023-08-21T09:08:55;11.00;;;6.27;;
16963;SDS011;8598;50.508;10.436;2023-08-21T09:11:23;8.20;;;6.63;;
16963;SDS011;8598;50.508;10.436;2023-08-21T09:13:50;8.70;;;6.37;;
16963;SDS011;8598;50.508;10.436;2023-08-21T09:16:17;8.47;;;6.80;;
16963;SDS011;8598;50.508;10.436;2023-08-21T09:18:47;7.60;;;6.57;;
16963;SDS011;8598;50.508;10.436;2023-08-21T09:21:15;10.60;;;6.90;;
16963;SDS011;8598;50.508;10.436;2023-08-21T09:23:44;10.47;;;7.13;;
16963;SDS011;8598;50.508;10.436;2023-08-21T09:26:17;7.63;;;6.63;;
16963;SDS011;8598;50.508;10.436;2023-08-21T09:28:45;7.67;;;6.60;;
16963;SDS011;8598;50.508;10.436;2023-08-21T09:31:12;9.70;;;6.63;;
16963;SDS011;8598;50.508;10.436;2023-08-21T09:33:39;11.83;;;6.27;;
16963;SDS011;8598;50.508;10.436;2023-08-21T09:36:06;10.23;;;6.27;;
16963;SDS011;8598;50.508;10.436;2023-08-21T09:38:35;7.73;;;6.13;;
16963;SDS011;8598;50.508;10.436;2023-08-21T09:41:06;7.50;;;6.00;;
16963;SDS011;8598;50.508;10.436;2023-08-21T09:43:37;7.27;;;6.37;;
16963;SDS011;8598;50.508;10.436;2023-08-21T09:46:07;8.57;;;5.87;;
16963;SDS011;8598;50.508;10.436;2023-08-21T09:48:34;7.57;;;6.27;;
16963;SDS011;8598;50.508;10.436;2023-08-21T09:51:03;7.13;;;5.50;;
16963;SDS011;8598;50.508;10.436;2023-08-21T09:53:30;6.13;;;5.53;;
16963;SDS011;8598;50.508;10.436;2023-08-21T09:55:57;13.70;;;5.80;;
16963;SDS011;8598;50.508;10.436;2023-08-21T09:58:29;8.97;;;5.53;;
16963;SDS011;8598;50.508;10.436;2023-08-21T10:00:56;9.00;;;5.93;;
16963;SDS011;8598;50.508;10.436;2023-08-21T10:03:24;8.57;;;6.03;;
16963;SDS011;8598;50.508;10.436;2023-08-21T10:05:51;7.10;;;5.13;;
16963;SDS011;8598;50.508;10.436;2023-08-21T10:08:23;7.57;;;5.40;;
16963;SDS011;8598;50.508;10.436;2023-08-21T10:10:51;7.97;;;5.57;;
16963;SDS011;8598;50.508;10.436;2023-08-21T10:13:17;6.97;;;5.43;;
16963;SDS011;8598;50.508;10.436;2023-08-21T10:15:46;6.90;;;5.37;;
16963;SDS011;8598;50.508;10.436;2023-08-21T10:18:17;5.90;;;5.10;;
16963;SDS011;8598;50.508;10.436;2023-08-21T10:20:44;9.50;;;4.67;;
16963;SDS011;8598;50.508;10.436;2023-08-21T10:23:12;7.30;;;4.80;;
16963;SDS011;8598;50.508;10.436;2023-08-21T10:25:54;9.50;;;5.00;;
16963;SDS011;8598;50.508;10.436;2023-08-21T10:28:21;8.67;;;5.03;;
16963;SDS011;8598;50.508;10.436;2023-08-21T10:30:49;7.47;;;5.27;;
16963;SDS011;8598;50.508;10.436;2023-08-21T10:33:16;7.20;;;4.70;;
16963;SDS011;8598;50.508;10.436;2023-08-21T10:35:44;6.03;;;4.83;;
16963;SDS011;8598;50.508;10.436;2023-08-21T10:38:11;7.07;;;4.80;;
16963;SDS011;8598;50.508;10.436;2023-08-21T10:40:41;6.53;;;4.83;;
16963;SDS011;8598;50.508;10.436;2023-08-21T10:43:37;6.00;;;4.80;;
16963;SDS011;8598;50.508;10.436;2023-08-21T10:46:06;7.40;;;4.80;;
16963;SDS011;8598;50.508;10.436;2023-08-21T10:48:33;7.57;;;4.70;;
16963;SDS011;8598;50.508;10.436;2023-08-21T10:51:01;5.60;;;4.67;;
16963;SDS011;8598;50.508;10.436;2023-08-21T10:53:29;7.20;;;5.03;;
16963;SDS011;8598;50.508;10.436;2023-08-21T10:56:00;5.30;;;4.77;;
16963;SDS011;8598;50.508;10.436;2023-08-21T10:58:28;9.97;;;4.50;;
16963;SDS011;8598;50.508;10.436;2023-08-21T11:01:00;6.97;;;3.87;;
16963;SDS011;8598;50.508;10.436;2023-08-21T11:03:28;4.37;;;3.60;;
16963;SDS011;8598;50.508;10.436;2023-08-21T11:06:01;4.40;;;3.93;;
16963;SDS011;8598;50.508;10.436;2023-08-21T11:08:29;4.90;;;4.20;;
16963;SDS011;8598;50.508;10.436;2023-08-21T11:10:57;5.13;;;4.20;;
16963;SDS011;8598;50.508;10.436;2023-08-21T11:13:23;6.57;;;4.33;;
16963;SDS011;8598;50.508;10.436;2023-08-21T11:15:57;5.10;;;3.90;;
16963;SDS011;8598;50.508;10.436;2023-08-21T11:18:30;4.37;;;3.97;;
16963;SDS011;8598;50.508;10.436;2023-08-21T11:21:04;5.33;;;3.87;;
16963;SDS011;8598;50.508;10.436;2023-08-21T11:23:32;4.60;;;4.13;;
16963;SDS011;8598;50.508;10.436;2023-08-21T11:26:00;4.67;;;4.00;;
16963;SDS011;8598;50.508;10.436;2023-08-21T11:28:27;5.77;;;4.20;;
16963;SDS011;8598;50.508;10.436;2023-08-21T11:30:55;13.90;;;4.17;;
16963;SDS011;8598;50.508;10.436;2023-08-21T11:33:22;6.10;;;4.37;;
16963;SDS011;8598;50.508;10.436;2023-08-21T11:35:50;3.93;;;3.40;;
16963;SDS011;8598;50.508;10.436;2023-08-21T11:38:18;5.53;;;3.33;;
16963;SDS011;8598;50.508;10.436;2023-08-21T11:40:51;5.27;;;3.90;;
16963;SDS011;8598;50.508;10.436;2023-08-21T11:43:18;5.47;;;3.77;;
16963;SDS011;8598;50.508;10.436;2023-08-21T11:45:45;4.83;;;3.80;;
16963;SDS011;8598;50.508;10.436;2023-08-21T11:48:12;5.57;;;4.33;;
16963;SDS011;8598;50.508;10.436;2023-08-21T11:50:38;4.40;;;4.00;;
16963;SDS011;8598;50.508;10.436;2023-08-21T11:53:07;3.93;;;3.30;;
16963;SDS011;8598;50.508;10.436;2023-08-21T11:55:36;7.53;;;3.30;;
16963;SDS011;8598;50.508;10.436;2023-08-21T11:58:05;4.97;;;3.40;;
16963;SDS011;8598;50.508;10.436;2023-08-21T12:00:32;5.53;;;3.20;;
16963;SDS011;8598;50.508;10.436;2023-08-21T12:02:59;5.13;;;3.80;;
16963;SDS011;8598;50.508;10.436;2023-08-21T12:05:28;10.37;;;3.47;;
16963;SDS011;8598;50.508;10.436;2023-08-21T12:07:55;4.73;;;2.93;;
16963;SDS011;8598;50.508;10.436;2023-08-21T12:10:23;4.23;;;3.10;;
16963;SDS011;8598;50.508;10.436;2023-08-21T12:12:50;3.10;;;2.73;;
16963;SDS011;8598;50.508;10.436;2023-08-21T12:15:17;8.97;;;3.27;;
16963;SDS011;8598;50.508;10.436;2023-08-21T12:17:44;9.00;;;2.97;;
16963;SDS011;8598;50.508;10.436;2023-08-21T12:20:11;3.37;;;2.70;;
16963;SDS011;8598;50.508;10.436;2023-08-21T12:22:39;4.10;;;2.90;;
16963;SDS011;8598;50.508;10.436;2023-08-21T12:25:07;3.40;;;2.70;;
16963;SDS011;8598;50.508;10.436;2023-08-21T12:27:36;3.70;;;2.73;;
16963;SDS011;8598;50.508;10.436;2023-08-21T12:30:03;6.70;;;2.70;;
16963;SDS011;8598;50.508;10.436;2023-08-21T12:32:31;3.63;;;2.50;;
16963;SDS011;8598;50.508;10.436;2023-08-21T12:34:57;3.80;;;2.53;;
16963;SDS011;8598;50.508;10.436;2023-08-21T12:37:24;2.53;;;2.30;;
16963;SDS011;8598;50.508;10.436;2023-08-21T12:39:51;4.00;;;2.30;;
16963;SDS011;8598;50.508;10.436;2023-08-21T12:42:19;3.30;;;2.67;;
16963;SDS011;8598;50.508;10.436;2023-08-21T12:44:47;2.60;;;2.40;;
16963;SDS011;8598;50.508;10.436;2023-08-21T12:47:14;4.97;;;2.63;;
16963;SDS011;8598;50.508;10.436;2023-08-21T12:49:40;3.77;;;2.77;;
16963;SDS011;8598;50.508;10.436;2023-08-21T12:52:07;4.33;;;2.63;;
16963;SDS011;8598;50.508;10.436;2023-08-21T12:54:34;4.13;;;2.40;;
16963;SDS011;8598;50.508;10.436;2023-08-21T12:57:00;7.00;;;2.60;;
16963;SDS011;8598;50.508;10.436;2023-08-21T12:59:27;4.13;;;2.37;;
16963;SDS011;8598;50.508;10.436;2023-08-21T13:01:55;3.80;;;2.40;;
16963;SDS011;8598;50.508;10.436;2023-08-21T13:04:22;4.97;;;2.80;;
16963;SDS011;8598;50.508;10.436;2023-08-21T13:06:49;7.50;;;2.10;;
16963;SDS011;8598;50.508;10.436;2023-08-21T13:09:15;3.47;;;2.13;;
16963;SDS011;8598;50.508;10.436;2023-08-21T13:11:42;4.17;;;2.53;;
16963;SDS011;8598;50.508;10.436;2023-08-21T13:14:09;3.43;;;2.53;;
16963;SDS011;8598;50.508;10.436;2023-08-21T13:16:35;3.67;;;2.20;;
16963;SDS011;8598;50.508;10.436;2023-08-21T13:19:03;4.60;;;2.37;;
16963;SDS011;8598;50.508;10.436;2023-08-21T13:21:30;5.03;;;2.30;;
16963;SDS011;8598;50.508;10.436;2023-08-21T13:23:56;4.20;;;2.13;;
16963;SDS011;8598;50.508;10.436;2023-08-21T13:26:23;3.80;;;2.50;;
16963;SDS011;8598;50.508;10.436;2023-08-21T13:28:50;4.10;;;2.93;;
16963;SDS011;8598;50.508;10.436;2023-08-21T13:31:17;4.70;;;2.63;;
16963;SDS011;8598;50.508;10.436;2023-08-21T13:33:44;4.43;;;2.50;;
16963;SDS011;8598;50.508;10.436;2023-08-21T13:36:12;3.97;;;2.40;;
16963;SDS011;8598;50.508;10.436;2023-08-21T13:38:40;4.87;;;2.20;;
16963;SDS011;8598;50.508;10.436;2023-08-21T13:41:07;2.80;;;2.43;;
16963;SDS011;8598;50.508;10.436;2023-08-21T13:43:34;3.23;;;2.50;;
16963;SDS011;8598;50.508;10.436;2023-08-21T13:46:01;4.97;;;2.70;;
16963;SDS011;8598;50.508;10.436;2023-08-21T13:48:29;2.90;;;2.30;;
16963;SDS011;8598;50.508;10.436;2023-08-21T13:50:56;4.03;;;2.50;;
16963;SDS011;8598;50.508;10.436;2023-08-21T13:53:24;5.40;;;2.30;;
16963;SDS011;8598;50.508;10.436;2023-08-21T13:55:51;5.50;;;2.50;;
16963;SDS011;8598;50.508;10.436;2023-08-21T13:58:18;2.57;;;2.20;;
16963;SDS011;8598;50.508;10.436;2023-08-21T14:00:44;3.60;;;2.70;;
16963;SDS011;8598;50.508;10.436;2023-08-21T14:03:11;3.70;;;2.30;;
16963;SDS011;8598;50.508;10.436;2023-08-21T14:05:38;3.13;;;2.53;;
16963;SDS011;8598;50.508;10.436;2023-08-21T14:08:05;3.00;;;2.70;;
16963;SDS011;8598;50.508;10.436;2023-08-21T14:10:33;4.77;;;2.40;;
16963;SDS011;8598;50.508;10.436;2023-08-21T14:13:00;4.40;;;2.80;;
16963;SDS011;8598;50.508;10.436;2023-08-21T14:15:28;5.90;;;2.50;;
16963;SDS011;8598;50.508;10.436;2023-08-21T14:17:55;2.93;;;2.63;;
16963;SDS011;8598;50.508;10.436;2023-08-21T14:20:22;4.77;;;2.20;;
16963;SDS011;8598;50.508;10.436;2023-08-21T14:22:48;3.07;;;2.77;;
16963;SDS011;8598;50.508;10.436;2023-08-21T14:25:16;4.67;;;2.37;;
16963;SDS011;8598;50.508;10.436;2023-08-21T14:27:44;5.43;;;2.63;;
16963;SDS011;8598;50.508;10.436;2023-08-21T14:30:11;5.30;;;2.23;;
16963;SDS011;8598;50.508;10.436;2023-08-21T14:32:39;5.83;;;2.17;;
16963;SDS011;8598;50.508;10.436;2023-08-21T14:35:07;3.90;;;2.63;;